Time;durP1;ratioP1;P1;durP2;ratioP2;P2;SDS_P1;SDS_P2;PMS_P1;PMS_P2;Temp;Humidity;BMP_temperature;BMP_pressure;BME280_temperature;BME280_humidity;BME280_pressure;Samples;Min_cycle;Max_cycle;Signal;HPM_P1;HPM_P2
2023/08/17 00:03:11;;;;;;;9.38;5.60;;;;;;;20.04;95.62;101147.94;10429470;28;20042;-75
2023/08/17 00:08:13;;;;;;;13.05;5.60;;;;;;;19.93;96.68;101178.09;10434703;28;20535;-74
2023/08/17 00:13:16;;;;;;;15.38;7.25;;;;;;;19.95;97.96;101194.47;10443374;28;20041;-74
2023/08/17 00:18:18;;;;;;;11.35;6.80;;;;;;;19.86;96.74;101191.72;10444447;28;20042;-75
2023/08/17 00:23:21;;;;;;;8.05;5.40;;;;;;;19.85;97.65;101165.84;10434651;28;20054;-75
2023/08/17 00:28:23;;;;;;;7.68;4.50;;;;;;;19.74;98.56;101170.13;10444734;28;20045;-75
2023/08/17 00:33:25;;;;;;;8.40;5.32;;;;;;;19.75;98.63;101170.94;10443730;28;20034;-75
2023/08/17 00:38:28;;;;;;;11.18;5.53;;;;;;;19.76;96.11;101184.53;10443786;28;20060;-75
2023/08/17 00:43:30;;;;;;;9.68;5.45;;;;;;;19.72;96.05;101172.41;10441520;28;20057;-75
2023/08/17 00:48:33;;;;;;;8.18;5.65;;;;;;;19.62;96.02;101199.78;10441541;28;20060;-74
2023/08/17 00:53:35;;;;;;;8.68;6.25;;;;;;;19.97;95.45;101287.75;10442995;28;20444;-76
2023/08/17 00:58:37;;;;;;;8.13;5.80;;;;;;;19.87;98.09;101305.59;10444237;28;20057;-74
2023/08/17 01:03:43;;;;;;;10.13;6.05;;;;;;;19.85;99.56;101304.28;10435509;28;20049;-76
2023/08/17 01:08:46;;;;;;;7.00;5.05;;;;;;;19.77;98.31;101322.63;10443440;28;20047;-75
2023/08/17 01:14:39;;;;;;;8.73;6.00;;;;;;;19.71;97.23;101298.03;10434267;28;20049;-75
2023/08/17 01:19:42;;;;;;;10.05;5.85;;;;;;;19.60;97.52;101293.94;10433995;28;20049;-75
2023/08/17 01:24:45;;;;;;;8.30;6.22;;;;;;;19.54;98.41;101282.16;10413676;28;20049;-75
2023/08/17 01:29:47;;;;;;;9.25;6.28;;;;;;;19.69;96.73;101276.09;10443439;28;20045;-75
2023/08/17 01:35:21;;;;;;;8.65;6.93;;;;;;;19.71;94.95;101286.91;10442408;28;20037;-75
2023/08/17 01:40:28;;;;;;;8.65;6.70;;;;;;;19.71;94.19;101281.34;10479835;28;20045;-75
2023/08/17 01:45:31;;;;;;;8.93;6.15;;;;;;;19.71;92.24;101309.19;10432139;28;20539;-75
2023/08/17 01:50:33;;;;;;;8.70;6.35;;;;;;;19.61;92.93;101307.53;10433631;28;20041;-74
2023/08/17 01:55:36;;;;;;;9.73;6.28;;;;;;;19.55;93.33;101311.63;10428374;28;20046;-74
2023/08/17 02:00:38;;;;;;;6.80;5.55;;;;;;;19.62;91.80;101294.44;10447863;28;20042;-73
2023/08/17 02:05:49;;;;;;;8.43;5.63;;;;;;;19.58;90.60;101283.94;10449442;28;20057;-73
2023/08/17 02:10:52;;;;;;;4.75;3.67;;;;;;;19.50;89.02;101281.94;10450608;28;20527;-75
2023/08/17 02:15:54;;;;;;;6.88;4.78;;;;;;;19.61;86.97;101259.38;10449181;28;20033;-75
2023/08/17 02:20:56;;;;;;;4.90;4.40;;;;;;;19.72;86.31;101255.94;10447269;28;20037;-75
2023/08/17 02:25:59;;;;;;;6.53;4.47;;;;;;;19.69;85.14;101255.78;10448104;28;20041;-75
2023/08/17 02:31:01;;;;;;;5.45;3.80;;;;;;;19.68;85.68;101249.41;10436949;28;20045;-75
2023/08/17 02:36:05;;;;;;;6.22;3.80;;;;;;;19.73;85.63;101262.34;10448629;28;20125;-75
2023/08/17 02:41:12;;;;;;;6.97;4.55;;;;;;;19.57;86.83;101278.69;10448645;28;20459;-75
2023/08/17 02:46:15;;;;;;;6.75;4.38;;;;;;;19.47;87.43;101265.09;10448385;28;20038;-75
2023/08/17 02:51:17;;;;;;;7.32;4.80;;;;;;;19.48;86.66;101242.50;10446306;28;20038;-75
2023/08/17 02:56:19;;;;;;;7.47;5.15;;;;;;;19.40;87.09;101234.13;10447476;28;20396;-75
2023/08/17 03:01:24;;;;;;;6.35;4.32;;;;;;;19.28;87.86;101224.47;10441203;28;20375;-75
2023/08/17 03:06:27;;;;;;;3.75;3.20;;;;;;;19.38;86.95;101242.81;10447954;28;20053;-75
2023/08/17 03:11:29;;;;;;;7.78;3.97;;;;;;;19.37;86.86;101232.81;10447099;28;20411;-75
2023/08/17 03:16:31;;;;;;;4.75;3.38;;;;;;;19.42;86.92;101243.78;10446311;28;20041;-75
2023/08/17 03:21:34;;;;;;;6.20;4.18;;;;;;;19.48;87.03;101239.72;10446030;28;20041;-75
2023/08/17 03:26:36;;;;;;;5.45;4.63;;;;;;;19.78;86.79;101254.63;10432028;28;20041;-75
2023/08/17 03:31:39;;;;;;;8.52;5.18;;;;;;;20.31;84.71;101255.41;10444711;28;20114;-75
2023/08/17 03:36:43;;;;;;;6.57;5.05;;;;;;;20.43;83.51;101269.47;10445719;28;20059;-75
2023/08/17 03:41:46;;;;;;;7.57;5.20;;;;;;;20.84;82.58;101273.63;10410872;28;20423;-76
2023/08/17 03:46:48;;;;;;;9.63;5.63;;;;;;;21.08;81.16;101280.19;10441761;28;20409;-75
2023/08/17 03:51:51;;;;;;;7.25;5.10;;;;;;;21.88;78.01;101285.75;10430026;28;20508;-74
2023/08/17 03:56:53;;;;;;;6.57;4.90;;;;;;;22.55;74.70;101304.19;10444638;28;20046;-75
2023/08/17 04:01:55;;;;;;;7.22;5.05;;;;;;;22.15;76.43;101301.16;10426153;28;20649;-77
2023/08/17 04:06:58;;;;;;;6.03;4.90;;;;;;;22.63;74.49;101305.25;10444689;28;20049;-75
2023/08/17 04:12:00;;;;;;;8.07;5.15;;;;;;;23.36;71.57;101321.31;10438813;28;20049;-80
2023/08/17 04:17:02;;;;;;;7.22;5.00;;;;;;;24.25;69.33;101329.63;10455190;28;20491;-77
2023/08/17 04:22:04;;;;;;;9.63;5.18;;;;;;;24.71;67.34;101332.94;10442346;28;20045;-79
2023/08/17 04:27:07;;;;;;;6.82;5.20;;;;;;;24.81;67.73;101335.19;10441347;28;20034;-79
2023/08/17 04:32:15;;;;;;;5.15;4.47;;;;;;;25.01;66.27;101330.56;10411219;28;20066;-79
2023/08/17 04:37:17;;;;;;;7.38;4.95;;;;;;;25.11;66.02;101353.28;10416543;28;20408;-79
2023/08/17 04:42:20;;;;;;;5.20;4.70;;;;;;;25.22;65.31;101337.50;10441505;28;20080;-79
2023/08/17 04:47:22;;;;;;;5.95;4.65;;;;;;;25.43;64.79;101339.19;10442707;28;20053;-80
2023/08/17 04:52:25;;;;;;;6.13;4.60;;;;;;;25.79;62.73;101329.63;10443464;28;20045;-78
2023/08/17 04:57:28;;;;;;;8.25;4.93;;;;;;;25.82;62.50;101334.50;10442749;28;20081;-79
2023/08/17 05:02:30;;;;;;;7.50;4.70;;;;;;;26.10;62.19;101337.13;10436663;28;20045;-79
2023/08/17 05:07:33;;;;;;;5.93;4.18;;;;;;;26.17;61.74;101348.50;10402830;28;20049;-78
2023/08/17 05:12:36;;;;;;;6.93;4.68;;;;;;;26.69;59.48;101347.16;10425833;28;20045;-79
2023/08/17 05:17:39;;;;;;;5.35;4.20;;;;;;;26.60;58.75;101341.78;10443276;28;20045;-78
2023/08/17 05:22:42;;;;;;;6.05;4.68;;;;;;;27.31;56.43;101340.22;10441997;28;20041;-78
2023/08/17 05:27:45;;;;;;;5.55;4.28;;;;;;;27.44;55.21;101354.94;10443186;28;20420;-77
2023/08/17 05:32:47;;;;;;;4.75;4.20;;;;;;;27.82;55.08;101362.38;10425203;28;20136;-77
2023/08/17 05:37:55;;;;;;;4.40;4.00;;;;;;;28.22;54.92;101367.31;10443372;28;20656;-77
2023/08/17 05:42:57;;;;;;;5.45;4.30;;;;;;;28.41;54.99;101374.84;10438031;28;20061;-77
2023/08/17 05:47:59;;;;;;;5.45;4.45;;;;;;;28.57;53.63;101371.00;10442095;28;20707;-78
2023/08/17 05:53:02;;;;;;;6.95;3.95;;;;;;;29.27;51.95;101372.91;10424706;28;20033;-78
2023/08/17 05:58:04;;;;;;;5.70;4.10;;;;;;;29.31;52.06;101368.91;10416812;28;20050;-80
2023/08/17 06:03:07;;;;;;;3.90;3.60;;;;;;;29.44;51.04;101375.06;10442660;28;20404;-76
2023/08/17 06:08:09;;;;;;;3.85;3.50;;;;;;;29.82;50.25;101390.72;10441103;28;20041;-76
2023/08/17 06:13:11;;;;;;;5.55;3.35;;;;;;;30.11;49.29;101394.56;10442573;28;20041;-76
2023/08/17 06:18:16;;;;;;;4.40;3.72;;;;;;;29.92;49.95;101397.66;10442671;28;20048;-76
2023/08/17 06:23:18;;;;;;;5.15;3.47;;;;;;;30.23;48.87;101399.06;10445175;28;20076;-76
2023/08/17 06:28:20;;;;;;;4.13;3.17;;;;;;;30.70;47.74;101392.34;10443407;28;20042;-78
2023/08/17 06:33:22;;;;;;;4.95;3.00;;;;;;;30.23;48.40;101388.53;10470074;28;20030;-77
2023/08/17 06:38:25;;;;;;;3.75;3.13;;;;;;;29.00;51.58;101407.00;10449152;28;20056;-78
2023/08/17 06:43:27;;;;;;;5.45;3.33;;;;;;;29.08;52.03;101393.75;10449922;28;20045;-77
2023/08/17 06:48:31;;;;;;;4.10;3.22;;;;;;;30.28;48.24;101390.19;10479942;28;20052;-77
2023/08/17 06:53:33;;;;;;;3.58;2.90;;;;;;;30.01;49.09;101398.09;10489833;28;20450;-75
2023/08/17 06:58:35;;;;;;;3.13;2.83;;;;;;;30.90;47.48;101398.50;10455163;28;20054;-73
2023/08/17 07:03:38;;;;;;;4.10;2.70;;;;;;;31.38;46.34;101398.94;10440711;28;20942;-73
2023/08/17 07:08:40;;;;;;;3.25;2.85;;;;;;;31.24;46.32;101410.31;10477535;28;20045;-73
2023/08/17 07:13:42;;;;;;;2.80;2.40;;;;;;;31.02;46.93;101408.63;10447024;28;20045;-74
2023/08/17 07:18:45;;;;;;;5.22;2.80;;;;;;;28.86;50.83;101415.34;10446769;28;20393;-74
2023/08/17 07:23:47;;;;;;;3.47;3.17;;;;;;;29.35;50.07;101431.16;10431110;28;20401;-75
2023/08/17 07:28:49;;;;;;;4.45;2.58;;;;;;;28.08;53.08;101432.03;10441916;28;20037;-75
2023/08/17 07:33:51;;;;;;;3.75;2.40;;;;;;;29.08;51.74;101445.44;10432815;28;20044;-75
2023/08/17 07:38:54;;;;;;;3.33;2.70;;;;;;;27.90;54.51;101445.06;10434060;28;20042;-75
2023/08/17 07:43:56;;;;;;;3.08;2.58;;;;;;;28.43;54.41;101443.03;10441234;28;20053;-74
2023/08/17 07:48:58;;;;;;;3.15;2.47;;;;;;;29.53;51.06;101459.63;10439922;28;20030;-75
2023/08/17 07:54:00;;;;;;;4.10;2.60;;;;;;;27.33;56.44;101458.22;10432478;28;20057;-74
2023/08/17 07:59:03;;;;;;;3.50;2.05;;;;;;;25.95;61.01;101462.56;10445659;28;20046;-74
2023/08/17 08:04:06;;;;;;;5.20;2.40;;;;;;;27.96;55.08;101454.03;10439878;28;20072;-73
2023/08/17 08:09:08;;;;;;;5.00;3.00;;;;;;;26.82;58.13;101460.44;10481118;28;20081;-74
2023/08/17 08:14:11;;;;;;;3.45;2.40;;;;;;;27.32;57.59;101465.84;10486390;28;20048;-74
2023/08/17 08:19:13;;;;;;;2.83;2.58;;;;;;;27.07;57.37;101458.94;10486932;28;20044;-74
2023/08/17 08:24:15;;;;;;;3.60;2.30;;;;;;;27.28;57.23;101456.53;10486827;28;20533;-74
2023/08/17 08:29:17;;;;;;;6.65;3.25;;;;;;;28.48;53.84;101468.13;10487313;28;20049;-74
2023/08/17 08:34:20;;;;;;;3.58;2.60;;;;;;;27.36;56.15;101467.91;10438339;28;20053;-74
2023/08/17 08:39:25;;;;;;;4.75;3.03;;;;;;;26.52;59.08;101474.28;10425994;28;20045;-74
2023/08/17 08:44:27;;;;;;;2.95;2.63;;;;;;;25.59;61.93;101480.53;10403365;28;20049;-74
2023/08/17 08:49:31;;;;;;;4.20;2.60;;;;;;;25.45;62.12;101478.16;10405264;28;20049;-74
2023/08/17 08:54:35;;;;;;;5.53;2.85;;;;;;;26.36;58.72;101482.78;10444150;28;20052;-74
2023/08/17 08:59:43;;;;;;;2.72;2.30;;;;;;;26.30;58.42;101481.44;10444741;28;20064;-74
2023/08/17 09:04:46;;;;;;;3.60;2.53;;;;;;;26.12;59.43;101475.41;10443400;28;20072;-74
2023/08/17 09:09:48;;;;;;;3.65;2.58;;;;;;;26.88;57.80;101473.03;10443202;28;20044;-74
2023/08/17 09:14:50;;;;;;;5.10;2.78;;;;;;;26.36;57.51;101480.78;10444289;28;20061;-74
2023/08/17 09:19:53;;;;;;;4.45;2.85;;;;;;;25.64;60.04;101485.03;10442884;28;20041;-74
2023/08/17 09:24:56;;;;;;;4.05;2.83;;;;;;;27.36;55.32;101473.56;10442801;28;20534;-74
2023/08/17 09:30:06;;;;;;;4.53;2.58;;;;;;;27.44;54.71;101480.97;10442604;28;20048;-73
2023/08/17 09:35:09;;;;;;;3.47;2.72;;;;;;;26.91;55.42;101484.38;10443671;28;20044;-74
2023/08/17 09:40:11;;;;;;;3.38;2.60;;;;;;;26.72;55.56;101490.81;10443450;28;20041;-74
2023/08/17 09:45:17;;;;;;;4.10;3.08;;;;;;;26.25;57.46;101495.78;10444024;28;20042;-74
2023/08/17 09:50:22;;;;;;;3.80;2.80;;;;;;;25.61;60.76;101505.44;10443807;28;20523;-74
2023/08/17 09:55:25;;;;;;;3.92;2.55;;;;;;;25.24;60.98;101517.75;10434904;28;20041;-74
2023/08/17 10:00:27;;;;;;;3.63;2.45;;;;;;;25.36;60.29;101513.25;10447626;28;20060;-73
2023/08/17 10:05:35;;;;;;;7.05;3.15;;;;;;;25.72;59.25;101515.84;10448806;28;20575;-75
2023/08/17 10:10:44;;;;;;;3.65;2.80;;;;;;;25.84;59.73;101521.34;10415466;28;20061;-73
2023/08/17 10:16:05;;;;;;;4.63;2.70;;;;;;;26.27;58.53;101518.75;10408400;28;20046;-75
2023/08/17 10:21:13;;;;;;;3.60;2.60;;;;;;;26.23;58.01;101521.50;10410400;28;20054;-75
2023/08/17 10:26:16;;;;;;;2.85;2.35;;;;;;;26.35;58.05;101520.56;10408179;28;20056;-75
2023/08/17 10:31:19;;;;;;;3.80;2.58;;;;;;;26.14;58.94;101524.47;10407899;28;20081;-75
2023/08/17 10:36:22;;;;;;;3.35;2.50;;;;;;;25.90;59.63;101533.16;10408734;28;20049;-75
2023/08/17 10:41:24;;;;;;;3.35;3.05;;;;;;;26.01;59.53;101528.59;10407515;28;20045;-75
2023/08/17 10:46:34;;;;;;;5.60;3.10;;;;;;;26.30;59.01;101523.63;10407052;28;20049;-75
2023/08/17 10:51:36;;;;;;;4.22;3.17;;;;;;;25.93;59.51;101521.16;10407513;28;20045;-75
2023/08/17 10:56:40;;;;;;;4.90;3.28;;;;;;;25.34;62.01;101516.41;10422986;28;20053;-76
2023/08/17 11:01:42;;;;;;;4.55;2.92;;;;;;;25.24;63.22;101528.16;10439775;28;20053;-74
2023/08/17 11:06:45;;;;;;;3.88;3.30;;;;;;;25.14;62.95;101523.88;10449790;28;20041;-74
2023/08/17 11:11:52;;;;;;;6.28;3.38;;;;;;;25.45;62.54;101525.13;10448192;28;20041;-74
2023/08/17 11:16:55;;;;;;;3.95;3.13;;;;;;;25.39;62.53;101521.75;10447313;28;20045;-74
2023/08/17 11:21:57;;;;;;;2.90;2.58;;;;;;;25.38;62.81;101522.94;10442117;28;20531;-76
2023/08/17 11:27:00;;;;;;;5.68;3.22;;;;;;;25.50;63.57;101522.84;10447408;28;20038;-75
2023/08/17 11:32:08;;;;;;;5.05;3.28;;;;;;;25.37;63.47;101526.94;10442032;28;20052;-75
2023/08/17 11:37:11;;;;;;;6.10;3.58;;;;;;;25.04;64.57;101529.22;10432645;28;20044;-76
2023/08/17 11:42:14;;;;;;;4.55;3.38;;;;;;;24.93;64.00;101529.69;10445413;28;20546;-75
2023/08/17 11:47:16;;;;;;;6.30;3.63;;;;;;;24.76;65.32;101540.38;10444567;28;20041;-75
2023/08/17 11:52:18;;;;;;;4.35;2.92;;;;;;;24.78;65.12;101530.44;10440598;28;20416;-74
2023/08/17 11:57:21;;;;;;;4.40;3.10;;;;;;;24.73;64.16;101549.53;10443132;28;20045;-73
2023/08/17 12:02:23;;;;;;;3.10;2.80;;;;;;;24.31;64.89;101553.47;10437198;28;20034;-72
2023/08/17 12:07:26;;;;;;;5.25;2.83;;;;;;;24.11;66.57;101554.38;10423951;28;20124;-73
2023/08/17 12:12:28;;;;;;;5.63;3.63;;;;;;;23.76;67.47;101548.41;10457584;28;20045;-72
2023/08/17 12:17:30;;;;;;;3.60;3.28;;;;;;;23.60;66.22;101548.25;10425640;28;20891;-73
2023/08/17 12:22:33;;;;;;;5.63;3.78;;;;;;;23.33;68.35;101568.47;10443244;28;20037;-74
2023/08/17 12:27:35;;;;;;;5.63;3.20;;;;;;;23.53;67.87;101558.38;10442334;28;20044;-74
2023/08/17 12:32:38;;;;;;;6.47;3.75;;;;;;;23.47;66.95;101557.78;10428495;28;20049;-74
2023/08/17 12:37:40;;;;;;;6.03;3.50;;;;;;;23.25;67.71;101560.97;10445065;28;20622;-74
2023/08/17 12:42:42;;;;;;;5.32;3.30;;;;;;;22.94;67.52;101567.06;10422170;28;20053;-74
2023/08/17 12:47:44;;;;;;;4.43;2.67;;;;;;;23.01;68.17;101556.09;10440502;28;20049;-74
2023/08/17 12:52:47;;;;;;;4.30;3.20;;;;;;;23.00;66.63;101565.66;10459513;28;20038;-75
2023/08/17 12:57:49;;;;;;;5.05;3.38;;;;;;;23.11;66.54;101564.91;10446018;28;20060;-74
2023/08/17 13:02:51;;;;;;;4.63;3.00;;;;;;;23.01;65.65;101553.31;10440466;28;20050;-75
2023/08/17 13:07:53;;;;;;;6.18;3.22;;;;;;;22.96;65.92;101553.53;10458085;28;20045;-74
2023/08/17 13:12:59;;;;;;;5.65;3.47;;;;;;;23.02;65.56;101557.75;10485720;28;20422;-74
2023/08/17 13:18:01;;;;;;;4.25;3.28;;;;;;;22.73;64.16;101561.41;10450553;28;20129;-76
2023/08/17 13:23:04;;;;;;;4.65;2.72;;;;;;;22.52;62.53;101561.41;10439591;28;20072;-75
2023/08/17 13:28:06;;;;;;;3.22;2.65;;;;;;;22.54;61.12;101564.66;10441440;28;20046;-74
2023/08/17 13:33:08;;;;;;;2.75;1.92;;;;;;;22.40;57.97;101569.72;10445832;28;20033;-75
2023/08/17 13:38:11;;;;;;;2.72;2.03;;;;;;;22.21;55.71;101572.94;10431389;28;20034;-75
2023/08/17 13:43:13;;;;;;;3.10;2.40;;;;;;;22.08;55.34;101571.22;10446911;28;20049;-75
2023/08/17 13:48:15;;;;;;;2.78;2.30;;;;;;;22.17;57.45;101577.56;10451323;28;20046;-75
2023/08/17 13:53:18;;;;;;;3.22;2.78;;;;;;;22.21;59.18;101584.94;10450945;28;20037;-75
2023/08/17 13:58:20;;;;;;;5.43;2.33;;;;;;;22.01;60.31;101584.84;10447305;28;20088;-75
2023/08/17 14:03:23;;;;;;;5.40;2.75;;;;;;;21.84;61.67;101597.72;10450062;28;20045;-75
2023/08/17 14:08:25;;;;;;;3.78;2.78;;;;;;;21.76;62.14;101595.81;10442623;28;20054;-74
2023/08/17 14:13:27;;;;;;;4.85;2.78;;;;;;;21.80;62.42;101605.16;10416737;28;20056;-75
2023/08/17 14:18:29;;;;;;;4.13;2.85;;;;;;;21.75;62.75;101602.53;10457165;28;20042;-75
2023/08/17 14:23:32;;;;;;;3.83;2.88;;;;;;;21.86;62.72;101614.16;10441550;28;20052;-76
2023/08/17 14:28:34;;;;;;;6.38;2.95;;;;;;;21.71;63.13;101607.16;10439150;28;20100;-75
2023/08/17 14:33:36;;;;;;;4.15;2.63;;;;;;;21.60;63.95;101597.50;10445361;28;20043;-74
2023/08/17 14:38:40;;;;;;;6.13;2.55;;;;;;;21.51;64.60;101591.91;10447793;28;20128;-74
2023/08/17 14:43:42;;;;;;;4.22;3.13;;;;;;;21.59;64.72;101595.84;10437066;28;20523;-74
2023/08/17 14:48:44;;;;;;;3.50;2.55;;;;;;;21.38;66.38;101594.91;10446624;28;20037;-75
2023/08/17 14:53:47;;;;;;;5.60;3.20;;;;;;;21.37;66.21;101599.69;10448723;28;20041;-74
2023/08/17 14:58:49;;;;;;;4.15;2.85;;;;;;;21.28;67.00;101607.25;10446166;28;20048;-74
2023/08/17 15:03:52;;;;;;;3.70;2.97;;;;;;;21.28;67.24;101608.06;10447209;28;20532;-75
2023/08/17 15:08:54;;;;;;;3.92;2.67;;;;;;;21.23;66.79;101602.63;10452979;28;20056;-75
2023/08/17 15:13:56;;;;;;;3.35;2.70;;;;;;;21.29;67.34;101604.13;10406858;28;20061;-75
2023/08/17 15:18:58;;;;;;;5.57;2.80;;;;;;;21.27;66.91;101617.59;10448418;28;20050;-75
2023/08/17 15:24:00;;;;;;;3.95;2.67;;;;;;;21.28;66.86;101619.22;10449823;28;20535;-74
2023/08/17 15:29:03;;;;;;;5.13;2.92;;;;;;;21.19;67.19;101625.94;10446887;28;20045;-77
2023/08/17 15:34:05;;;;;;;6.22;3.15;;;;;;;21.26;66.94;101623.50;10446215;28;20053;-74
2023/08/17 15:39:08;;;;;;;6.28;3.30;;;;;;;21.04;67.51;101624.47;10446742;28;20080;-75
2023/08/17 15:44:11;;;;;;;5.55;2.65;;;;;;;21.13;67.17;101628.06;10418166;28;20137;-75
2023/08/17 15:49:13;;;;;;;4.15;2.72;;;;;;;21.14;68.05;101629.69;10457582;28;20213;-75
2023/08/17 15:54:16;;;;;;;5.00;2.92;;;;;;;21.11;66.92;101623.97;10455181;28;20042;-75
2023/08/17 15:59:19;;;;;;;5.75;2.80;;;;;;;20.85;67.12;101638.72;10442050;28;20041;-75
2023/08/17 16:04:21;;;;;;;3.65;2.30;;;;;;;20.76;67.12;101632.31;10445317;28;20045;-76
2023/08/17 16:09:24;;;;;;;5.05;3.50;;;;;;;20.84;67.54;101641.84;10445752;28;20409;-76
2023/08/17 16:14:26;;;;;;;6.45;3.85;;;;;;;20.73;67.19;101647.72;10446090;28;20049;-74
2023/08/17 16:19:28;;;;;;;6.47;4.05;;;;;;;20.57;68.27;101649.34;10445638;28;20045;-75
2023/08/17 16:24:31;;;;;;;6.97;3.60;;;;;;;20.51;68.34;101655.41;10445009;28;20495;-76
2023/08/17 16:29:33;;;;;;;4.45;3.25;;;;;;;20.44;69.16;101650.28;10447834;28;20051;-76
2023/08/17 16:34:36;;;;;;;4.38;3.00;;;;;;;20.44;69.83;101650.28;10446833;28;20041;-74
2023/08/17 16:39:38;;;;;;;3.45;2.80;;;;;;;20.35;70.79;101663.34;10444977;28;20049;-74
2023/08/17 16:44:41;;;;;;;3.65;2.83;;;;;;;20.42;71.08;101661.75;10445863;28;20057;-76
2023/08/17 16:49:43;;;;;;;5.35;2.67;;;;;;;20.41;71.15;101670.44;10427966;28;20042;-74
2023/08/17 16:54:45;;;;;;;6.45;3.22;;;;;;;20.23;72.75;101663.13;10403930;28;20049;-75
2023/08/17 16:59:47;;;;;;;5.40;3.95;;;;;;;20.36;72.96;101667.78;10404487;28;20050;-75
2023/08/17 17:04:50;;;;;;;6.15;3.50;;;;;;;20.27;74.26;101670.50;10414286;28;20053;-74
2023/08/17 17:09:52;;;;;;;5.40;3.33;;;;;;;20.12;75.22;101676.50;10402784;28;20049;-74
2023/08/17 17:14:55;;;;;;;5.05;3.38;;;;;;;20.10;75.71;101676.81;10403058;28;20401;-75
2023/08/17 17:19:57;;;;;;;4.45;3.20;;;;;;;;;;10403225;28;20162;-75
2023/08/17 17:24:59;;;;;;;3.97;3.15;;;;;;;19.88;76.48;101688.03;10403064;28;20081;-75
2023/08/17 17:30:01;;;;;;;3.83;3.15;;;;;;;19.73;77.50;101703.16;10402090;28;20061;-74
2023/08/17 17:35:05;;;;;;;5.13;3.47;;;;;;;19.57;79.30;101699.09;10403653;28;20050;-75
2023/08/17 17:40:08;;;;;;;5.40;3.65;;;;;;;19.53;80.19;101703.63;10433963;28;20053;-75
2023/08/17 17:45:11;;;;;;;5.53;3.85;;;;;;;19.52;80.90;101700.03;10442469;28;20431;-75
2023/08/17 17:50:13;;;;;;;4.80;3.25;;;;;;;19.41;81.37;101706.16;10442632;28;20411;-74
2023/08/17 17:55:16;;;;;;;7.72;3.53;;;;;;;19.38;81.86;101707.59;10444334;28;20041;-74
2023/08/17 18:00:18;;;;;;;7.50;3.70;;;;;;;19.27;82.13;101707.03;10442236;28;20065;-74
2023/08/17 18:05:20;;;;;;;7.90;4.78;;;;;;;19.20;82.35;101714.16;10438948;28;20072;-75
2023/08/17 18:10:23;;;;;;;5.75;4.45;;;;;;;19.02;82.77;101712.34;10441664;28;20037;-76
2023/08/17 18:15:25;;;;;;;5.72;3.25;;;;;;;18.96;82.65;101729.16;10439851;28;20041;-74
2023/08/17 18:20:27;;;;;;;5.28;3.40;;;;;;;18.87;82.98;101731.00;10438500;28;20045;-75
2023/08/17 18:25:31;;;;;;;5.85;3.75;;;;;;;18.86;83.68;101731.31;10442889;28;20041;-74
2023/08/17 18:30:34;;;;;;;5.03;2.75;;;;;;;18.88;83.44;101727.09;10433990;28;20038;-75
2023/08/17 18:35:36;;;;;;;5.40;2.83;;;;;;;18.93;82.73;101745.66;10445480;28;20033;-75
2023/08/17 18:40:39;;;;;;;6.45;3.47;;;;;;;18.91;83.41;101745.09;10434967;28;20037;-74
2023/08/17 18:45:41;;;;;;;4.40;3.15;;;;;;;18.91;82.66;101743.16;10434867;28;20041;-74
2023/08/17 18:50:43;;;;;;;6.07;3.40;;;;;;;18.90;82.99;101743.47;10444467;28;20038;-74
2023/08/17 18:55:45;;;;;;;5.65;4.00;;;;;;;18.78;83.31;101752.34;10433489;28;20053;-74
2023/08/17 19:00:48;;;;;;;6.32;4.22;;;;;;;18.78;84.02;101757.09;10430627;28;20056;-75
2023/08/17 19:05:50;;;;;;;6.57;4.10;;;;;;;18.72;83.29;101755.53;10428415;28;20053;-73
2023/08/17 19:10:52;;;;;;;6.53;3.20;;;;;;;18.62;82.90;101767.66;10450021;28;20080;-73
2023/08/17 19:15:57;;;;;;;4.32;3.00;;;;;;;18.75;82.24;101771.63;10434835;28;20049;-73
2023/08/17 19:21:03;;;;;;;3.83;2.97;;;;;;;18.74;81.50;101784.66;10439560;28;20057;-73
2023/08/17 19:26:05;;;;;;;3.50;3.08;;;;;;;18.79;80.89;101790.16;10446397;28;20500;-75
2023/08/17 19:31:08;;;;;;;4.05;3.20;;;;;;;18.84;80.47;101792.00;10442908;28;20064;-73
2023/08/17 19:36:10;;;;;;;3.30;2.80;;;;;;;18.85;80.31;101794.47;10434638;28;20041;-73
2023/08/17 19:41:14;;;;;;;3.65;3.10;;;;;;;18.87;80.42;101797.75;10445782;28;20567;-75
2023/08/17 19:46:17;;;;;;;4.70;3.22;;;;;;;18.78;80.54;101793.25;10424465;28;20037;-74
2023/08/17 19:51:19;;;;;;;3.80;3.03;;;;;;;18.76;80.49;101807.44;10405198;28;20045;-76
2023/08/17 19:56:22;;;;;;;4.60;3.25;;;;;;;18.79;80.75;101808.78;10443978;28;20105;-76
2023/08/17 20:01:25;;;;;;;5.82;3.72;;;;;;;18.75;81.37;101807.75;10416975;28;20049;-76
2023/08/17 20:06:28;;;;;;;8.60;3.45;;;;;;;18.72;81.25;101805.56;10444211;28;20051;-77
2023/08/17 20:11:30;;;;;;;4.80;3.58;;;;;;;18.70;81.13;101814.22;10443319;28;20591;-75
2023/08/17 20:16:32;;;;;;;6.03;3.25;;;;;;;18.67;81.59;101809.28;10443638;28;20045;-76
2023/08/17 20:21:35;;;;;;;5.18;3.10;;;;;;;18.70;80.98;101819.78;10441978;28;20077;-75
2023/08/17 20:26:37;;;;;;;5.45;3.25;;;;;;;18.67;81.82;101812.88;10437037;28;20033;-80
2023/08/17 20:31:39;;;;;;;3.80;3.40;;;;;;;18.67;81.94;101814.84;10442397;28;20538;-76
2023/08/17 20:36:42;;;;;;;4.68;3.45;;;;;;;18.65;81.64;101819.91;10438359;28;20034;-77
2023/08/17 20:41:44;;;;;;;4.68;3.50;;;;;;;18.65;80.94;101823.50;10436396;28;20488;-77
2023/08/17 20:46:48;;;;;;;5.63;3.85;;;;;;;18.61;81.18;101816.06;10438296;28;20041;-77
2023/08/17 20:51:50;;;;;;;5.85;3.20;;;;;;;18.57;80.61;101820.56;10442510;28;20041;-77
2023/08/17 20:56:52;;;;;;;4.43;3.60;;;;;;;18.34;81.75;101830.69;10414227;28;20041;-75
2023/08/17 21:01:56;;;;;;;5.53;3.45;;;;;;;18.32;81.47;101830.19;10441475;28;20077;-76
2023/08/17 21:06:59;;;;;;;5.75;3.50;;;;;;;18.24;80.87;101840.06;10440889;28;20052;-77
2023/08/17 21:12:01;;;;;;;7.50;3.60;;;;;;;18.16;80.97;101843.50;10445055;28;20045;-78
2023/08/17 21:17:10;;;;;;;4.97;3.50;;;;;;;18.09;81.12;101845.84;10439212;28;20041;-76
2023/08/17 21:22:13;;;;;;;4.78;3.25;;;;;;;18.04;81.53;101857.84;10443305;28;20033;-76
2023/08/17 21:27:15;;;;;;;8.35;3.45;;;;;;;18.04;80.96;101851.47;10442752;28;20152;-76
2023/08/17 21:32:18;;;;;;;3.53;2.75;;;;;;;18.00;79.94;101851.25;10438279;28;20049;-72
2023/08/17 21:37:25;;;;;;;3.65;3.20;;;;;;;17.94;79.26;101873.88;10439694;28;20511;-73
2023/08/17 21:42:28;;;;;;;3.20;2.60;;;;;;;17.96;78.50;101871.59;10444275;28;20212;-75
2023/08/17 21:47:30;;;;;;;3.25;2.75;;;;;;;17.96;78.21;101883.53;10437913;28;20041;-74
2023/08/17 21:52:33;;;;;;;3.42;3.05;;;;;;;18.05;78.10;101897.59;10440427;28;20037;-74
2023/08/17 21:57:39;;;;;;;4.13;2.77;;;;;;;18.00;77.40;101901.25;10445786;28;20447;-74
2023/08/17 22:02:41;;;;;;;3.15;2.50;;;;;;;18.09;76.92;101901.41;10440947;28;20046;-74
2023/08/17 22:07:44;;;;;;;4.35;2.65;;;;;;;18.28;76.34;101907.78;10447439;28;20088;-74
2023/08/17 22:12:46;;;;;;;2.70;2.50;;;;;;;18.23;75.51;101910.66;10449486;28;20038;-73
2023/08/17 22:17:48;;;;;;;4.30;2.38;;;;;;;18.12;75.58;101911.09;10449730;28;20037;-74
2023/08/17 22:22:51;;;;;;;3.90;2.33;;;;;;;18.06;75.79;101921.47;10451289;28;20048;-74
2023/08/17 22:27:53;;;;;;;2.30;2.10;;;;;;;18.01;75.23;101925.13;10450447;28;20045;-73
2023/08/17 22:32:55;;;;;;;2.10;1.90;;;;;;;17.94;75.45;101929.41;10466413;28;20053;-72
2023/08/17 22:37:57;;;;;;;2.22;1.80;;;;;;;17.75;76.10;101934.94;10450024;28;20037;-73
2023/08/17 22:42:59;;;;;;;2.65;1.67;;;;;;;17.78;76.31;101939.91;10449630;28;20045;-74
2023/08/17 22:48:02;;;;;;;2.03;1.52;;;;;;;17.70;76.64;101933.06;10444007;28;20045;-73
2023/08/17 22:53:04;;;;;;;2.67;1.98;;;;;;;17.56;77.28;101943.22;10449495;28;20048;-73
2023/08/17 22:58:06;;;;;;;2.10;1.90;;;;;;;17.46;77.54;101949.69;10448058;28;20176;-74
2023/08/17 23:03:08;;;;;;;1.65;1.55;;;;;;;17.40;78.06;101948.13;10446021;28;20045;-72
2023/08/17 23:08:11;;;;;;;2.67;1.60;;;;;;;17.25;79.03;101947.47;10447352;28;20061;-73
2023/08/17 23:13:13;;;;;;;2.60;1.92;;;;;;;17.29;78.95;101949.34;10431597;28;20496;-72